• Join FlightAware (Why Join?)
  • Login
  • US Flag 
12:13PM EDT


 

Airport Tracker/Info


-or-


 

Live Flight TrackerFlight Track Log ✈ RPA3436 ✈ 06-Sep-2013 ✈ KDCA - KALB

Flight Track Log - Related Links

Times and Time Zones

All times are in EDT time to prevent confusion due to time zone crossing. See the RPA3436 flight status page for this flight to view local times or setup timezone preferences in your user account.

Time Position Orientation Groundspeed Altitude Reporting Facility
EDT Latitude Longitude Course Direction KTS MPH feet Rate Location/Type
10:15AM 38.8833 -77.0500 83° East 160 184 1,500  Level Potomac TRACON
10:16AM 38.9167 -77.1000 311° West 221 254 3,000 2,520 Climbing Potomac TRACON
10:17AM 39.1019 -76.8432 67° East  Level Estimated
10:18AM 39.1852 -76.7781 61° Northeast  Level Estimated
10:18AM 39.0414 -77.1122 356° North 212 244 9,300  Level Washington Center
10:19AM 39.2684 -76.7128 90° East  Level Estimated
10:19AM 39.0592 -77.0083 78° East 221 254 11,100  Level Washington Center
10:20AM 39.3516 -76.6473 83° East  Level Estimated
10:20AM 39.0731 -76.8911 81° East 250 288 13,200  Level Washington Center
10:21AM 39.0889 -76.7628 81° East 312 359 14,300 1,200 Climbing Washington Center
10:22AM 39.1006 -76.6508 82° East 347 399 15,600 1,500 Climbing Washington Center
10:23AM 39.1206 -76.4825 81° East 388 447 17,400 1,440 Climbing Washington Center
10:24AM 39.1383 -76.3356 81° East 405 466 18,600 1,200 Climbing Washington Center
10:25AM 39.1494 -76.2178 83° East 410 472 19,800 1,140 Climbing Washington Center
10:26AM 39.1731 -76.0494 80° East 415 478 20,900 1,080 Climbing Washington Center
10:27AM 39.2381 -75.9267 56° Northeast 415 478 22,000 1,260 Climbing Washington Center
10:28AM 39.3175 -75.8117 48° Northeast 412 474 23,500 1,260 Climbing Washington Center
10:29AM 39.3967 -75.6908 50° Northeast 422 486 24,600 1,080 Climbing Washington Center
10:30AM 39.4781 -75.5756 48° Northeast 428 493 25,700 900 Climbing Washington Center
10:31AM 39.6150 -75.3764 48° Northeast 455 524 27,000 480 Climbing New York Center
10:32AM 39.6947 -75.2575 49° Northeast 455 524 27,000  Level New York Center
10:33AM 39.7808 -75.1281 49° Northeast 455 524 27,000  Level New York Center
10:34AM 39.8622 -75.0086 48° Northeast 455 524 27,000  Level New York Center
10:35AM 39.9461 -74.8811 49° Northeast 455 524 27,000  Level New York Center
10:36AM 40.0422 -74.7511 46° Northeast 455 524 27,000  Level New York Center
10:37AM 40.1236 -74.6256 50° Northeast 455 524 27,000  Level New York Center
10:38AM 40.2047 -74.5022 49° Northeast 450 518 27,000  Level New York Center
10:39AM 40.2978 -74.3903 43° Northeast 450 518 27,000  Level New York Center
10:41AM 40.4883 -74.1836 39° Northeast 439 505 27,000  Level Boston Center
10:42AM 40.5858 -74.0825 38° Northeast 439 505 27,000 -660 Level Boston Center
10:43AM 40.6831 -73.9808 38° Northeast 444 511 25,700 -1,500 Descending Boston Center
10:44AM 40.7781 -73.8789 39° Northeast 444 511 24,000 -900 Descending Boston Center
10:45AM 40.8669 -73.7739 42° Northeast 434 499 24,000 -480 Level Boston Center
10:46AM 40.9536 -73.6603 45° Northeast 434 499 23,100 -540 Descending Boston Center
10:47AM 41.0339 -73.5711 40° Northeast 426 490 23,000 -420 Descending Boston Center
10:48AM 41.1367 -73.4956 29° Northeast 421 484 22,300 -1,140 Descending Boston Center
10:49AM 41.2375 -73.4228 28° Northeast 416 479 20,800 -1,440 Descending Boston Center
10:50AM 41.3436 -73.4300 357° North 376 433 19,400 -1,440 Descending Boston Center
10:51AM 41.4539 -73.4483 353° North 361 415 18,000 -720 Descending Boston Center
10:52AM 41.5475 -73.4608 354° North 372 428 18,000  Level Boston Center
10:53AM 41.6578 -73.4736 355° North 372 428 18,000 -120 Level Boston Center
10:54AM 41.7536 -73.4836 356° North 365 420 17,800 -1,320 Descending Boston Center
10:55AM 41.8639 -73.4967 355° North 366 421 15,400 -2,100 Descending Boston Center
10:56AM 41.9536 -73.5092 354° North 366 421 13,600 -1,860 Descending Boston Center
10:57AM 42.0014 -73.5128 357° North 354 407 12,800 -1,920 Descending Boston Center
10:57AM 42.0597 -73.5194 355° North 353 406 11,700 -1,980 Descending Boston Center
10:58AM 42.0722 -73.5253 341° North 339 390 11,400 -660 Descending Boston Center
10:59AM 42.1661 -73.5156 North 334 384 11,000 -300 Descending Boston Center
10:59AM 42.2350 -73.5028 North 336 387 10,900 -480 Descending Boston Center
11:00AM 42.2578 -73.5200 331° Northwest 296 341 10,500 -1,500 Descending Boston Center
11:00AM 42.3033 -73.5517 333° Northwest 290 334 9,400 -1,680 Descending Boston Center
11:01AM 42.3156 -73.5744 306° West 265 305 9,000 -2,280 Descending Boston Center
11:01AM 42.3672 -73.6231 325° Northwest 273 314 7,200 -2,160 Descending Boston Center
11:02AM 42.3775 -73.6317 328° Northwest 269 310 6,900 -1,620 Descending Boston Center
11:02AM 42.4228 -73.6747 325° Northwest 273 314 5,600 -1,620 Descending Boston Center
11:03AM 42.4372 -73.6892 324° Northwest 263 303 5,300 -1,500 Descending Boston Center
11:03AM 42.4847 -73.7322 326° Northwest 256 295 4,100 -1,440 Descending Boston Center
11:04AM 42.4931 -73.7408 323° Northwest 246 283 3,900 -960 Descending Boston Center
11:05AM 42.5444 -73.7872 326° Northwest 220 253 3,000 -720 Descending Boston Center
11:05AM 42.5861 -73.7994 348° North 199 229 2,600 -480 Descending Boston Center
11:06AM 42.5881 -73.8022 314° West 168 193 2,600  Level Boston Center
11:06AM 42.6400 -73.8344 335° Northwest 190 219 2,600 -300 Level Boston Center
11:07AM 42.6361 -73.8003 99° East 162 186 2,300 -1,080 Descending Boston Center
11:08AM 42.6819 -73.8042 356° North 155 178 1,400 -840 Descending Boston Center
11:09AM 42.7194 -73.8078 356° North 126 145 700 -720 Descending Boston Center